Time;durP1;ratioP1;P1;durP2;ratioP2;P2;SDS_P1;SDS_P2;PMS_P1;PMS_P2;Temp;Humidity;BMP_temperature;BMP_pressure;BME280_temperature;BME280_humidity;BME280_pressure;Samples;Min_cycle;Max_cycle;Signal;HPM_P1;HPM_P2
2021/11/21 03:55:57;;;;;;;9.48;5.32;;;;;;;21.39;53.56;99095.75;5145853;27;20120;-51
2021/11/21 03:58:24;;;;;;;10.35;5.13;;;;;;;21.46;53.56;99100.75;5139009;27;20089;-51
2021/11/21 04:00:50;;;;;;;11.88;5.10;;;;;;;21.48;53.65;99096.22;5139736;27;20039;-51
2021/11/21 04:03:18;;;;;;;10.65;5.40;;;;;;;21.53;53.34;99089.75;5147472;27;20483;-51
2021/11/21 04:05:45;;;;;;;9.48;5.53;;;;;;;21.60;53.02;99095.59;5143527;27;20135;-51
2021/11/21 04:08:11;;;;;;;10.50;5.20;;;;;;;21.66;53.06;99092.59;5142988;27;20096;-51
2021/11/21 04:10:38;;;;;;;13.57;5.45;;;;;;;21.72;52.85;99094.06;5144268;27;20430;-51
2021/11/21 04:13:06;;;;;;;9.40;5.20;;;;;;;21.78;52.54;99099.88;5135632;27;20234;-51
2021/11/21 04:15:33;;;;;;;10.73;5.30;;;;;;;21.83;52.50;99084.59;5148432;27;20484;-52
2021/11/21 04:18:02;;;;;;;9.35;5.15;;;;;;;21.88;51.91;99089.63;5148992;27;20123;-52
2021/11/21 04:20:29;;;;;;;10.23;5.32;;;;;;;21.92;51.97;99085.00;5146590;27;20096;-52
2021/11/21 04:22:55;;;;;;;9.30;5.00;;;;;;;21.96;52.06;99084.75;5138920;27;20500;-52
2021/11/21 04:25:22;;;;;;;9.60;5.15;;;;;;;22.01;52.07;99089.81;5145048;27;20096;-51
2021/11/21 04:27:49;;;;;;;9.63;5.40;;;;;;;22.04;51.84;99086.97;5145048;27;20046;-51
2021/11/21 04:30:17;;;;;;;8.32;4.72;;;;;;;22.07;51.71;99084.16;5139458;27;20043;-51
2021/11/21 04:32:45;;;;;;;9.07;4.97;;;;;;;22.10;51.60;99078.69;5139934;27;20047;-51
2021/11/21 04:35:12;;;;;;;8.65;4.95;;;;;;;22.11;51.44;99088.34;5147559;27;20043;-51
2021/11/21 04:37:39;;;;;;;9.75;5.25;;;;;;;22.13;51.49;99083.81;5149052;27;20040;-51
2021/11/21 04:40:07;;;;;;;10.60;5.03;;;;;;;22.13;51.46;99078.50;5137756;27;20046;-51
2021/11/21 04:42:34;;;;;;;8.63;4.95;;;;;;;22.14;51.31;99069.63;5142757;27;20040;-51
2021/11/21 04:45:01;;;;;;;9.18;5.03;;;;;;;22.14;51.34;99066.97;5146534;27;20039;-52
2021/11/21 04:47:29;;;;;;;9.57;4.90;;;;;;;22.15;51.30;99065.16;5138833;27;20039;-51
2021/11/21 04:49:56;;;;;;;8.38;4.93;;;;;;;22.16;51.37;99061.59;5139262;27;20052;-51
2021/11/21 04:52:22;;;;;;;9.40;4.95;;;;;;;22.17;51.30;99055.31;5146089;27;20043;-51
2021/11/21 04:54:49;;;;;;;8.57;5.03;;;;;;;22.17;51.29;99047.34;5142578;27;20051;-51
2021/11/21 04:57:17;;;;;;;8.68;4.80;;;;;;;22.18;51.15;99043.78;5148938;27;20044;-52
2021/11/21 04:59:44;;;;;;;8.43;4.93;;;;;;;22.19;51.20;99035.69;5141513;27;20043;-51
2021/11/21 05:02:10;;;;;;;9.77;4.78;;;;;;;22.20;51.21;99036.56;5143559;27;20043;-51
2021/11/21 05:04:39;;;;;;;8.70;4.95;;;;;;;22.20;51.19;99031.28;5149403;27;20496;-52
2021/11/21 05:07:06;;;;;;;8.73;5.15;;;;;;;22.21;51.13;99023.19;5136702;27;20549;-51
2021/11/21 05:09:33;;;;;;;9.63;5.25;;;;;;;22.21;51.06;99023.19;5135679;27;20047;-51
2021/11/21 05:12:00;;;;;;;8.10;4.50;;;;;;;22.24;50.98;99027.50;5124671;27;20375;-51
2021/11/21 05:14:26;;;;;;;8.20;4.88;;;;;;;22.25;50.96;99023.06;5129514;27;20065;-51
2021/11/21 05:16:53;;;;;;;8.13;4.45;;;;;;;22.26;51.04;99022.13;5124288;27;20047;-51
2021/11/21 05:19:20;;;;;;;9.10;4.88;;;;;;;22.27;50.91;99018.53;5134190;27;20047;-51
2021/11/21 05:21:48;;;;;;;8.60;5.00;;;;;;;22.28;51.02;99018.44;5122911;27;20119;-51
2021/11/21 05:24:18;;;;;;;11.57;5.10;;;;;;;22.30;50.96;99016.56;5121460;27;20116;-51
2021/11/21 05:26:45;;;;;;;8.77;4.72;;;;;;;22.31;51.03;99006.78;5114790;28;20050;-51
2021/11/21 05:29:12;;;;;;;9.48;5.00;;;;;;;22.31;50.95;99001.47;5127918;27;20039;-51
2021/11/21 05:31:39;;;;;;;8.65;4.88;;;;;;;22.32;50.92;99012.00;5120417;27;20076;-51
2021/11/21 05:34:05;;;;;;;8.77;5.10;;;;;;;22.33;51.02;99003.13;5124189;27;20089;-51
2021/11/21 05:36:32;;;;;;;8.30;4.80;;;;;;;22.33;50.90;99005.78;5128887;27;20097;-51
2021/11/21 05:39:01;;;;;;;9.20;4.82;;;;;;;22.32;50.77;99003.19;5122789;27;20410;-51
2021/11/21 05:41:27;;;;;;;8.77;5.05;;;;;;;22.33;50.66;99007.53;5098302;28;20096;-51
2021/11/21 05:43:54;;;;;;;8.63;5.00;;;;;;;22.34;50.65;98998.66;5122367;27;20105;-51
2021/11/21 05:46:21;;;;;;;8.60;4.70;;;;;;;22.35;50.94;99008.31;5118352;27;20051;-52
2021/11/21 05:48:47;;;;;;;9.20;5.03;;;;;;;22.35;51.07;99003.88;5121102;27;20119;-51
2021/11/21 05:51:14;;;;;;;9.05;5.18;;;;;;;22.36;50.92;99010.88;5115009;27;20044;-52
2021/11/21 05:53:41;;;;;;;8.27;4.50;;;;;;;22.38;50.83;99008.16;5125910;27;20525;-51
2021/11/21 05:56:09;;;;;;;10.18;4.68;;;;;;;22.39;50.85;99005.41;5116224;27;20104;-52
2021/11/21 05:58:35;;;;;;;8.20;4.78;;;;;;;22.40;50.82;99008.91;5115628;27;20096;-51
2021/11/21 06:01:02;;;;;;;8.20;4.63;;;;;;;22.39;50.88;99004.53;5120654;27;20086;-51
2021/11/21 06:03:29;;;;;;;8.55;4.80;;;;;;;22.40;50.78;99011.56;5127908;27;20039;-51
2021/11/21 06:05:56;;;;;;;8.70;4.80;;;;;;;22.45;50.55;99014.81;5129692;27;20444;-50
2021/11/21 06:08:22;;;;;;;11.55;4.68;;;;;;;22.47;50.51;99007.63;5123734;27;20047;-52
2021/11/21 06:10:49;;;;;;;10.20;5.10;;;;;;;22.50;50.56;99011.88;5125999;27;20043;-51
2021/11/21 06:13:17;;;;;;;18.02;5.05;;;;;;;22.52;50.20;99000.22;5126961;27;20044;-55
2021/11/21 06:15:45;;;;;;;26.98;5.63;;;;;;;22.58;50.18;99010.47;5119702;27;20447;-51
2021/11/21 06:18:12;;;;;;;11.75;4.90;;;;;;;22.57;50.94;99008.78;5124374;27;20074;-51
2021/11/21 06:20:39;;;;;;;9.05;4.47;;;;;;;22.55;50.76;99005.34;5128535;27;20089;-51
2021/11/21 06:23:05;;;;;;;9.05;4.70;;;;;;;22.53;50.79;99006.41;5128557;27;20043;-51
2021/11/21 06:25:32;;;;;;;15.65;5.20;;;;;;;22.55;50.42;99008.00;5131971;27;20484;-49
2021/11/21 06:27:59;;;;;;;14.52;5.47;;;;;;;22.59;50.43;99011.34;5130496;27;20051;-49
2021/11/21 06:30:27;;;;;;;16.33;4.60;;;;;;;22.63;50.74;99017.34;5128200;27;20103;-51
2021/11/21 06:32:54;;;;;;;12.70;4.72;;;;;;;22.64;50.83;99008.41;5128059;27;20493;-54
2021/11/21 06:35:20;;;;;;;22.00;5.13;;;;;;;22.66;51.18;99009.16;5134063;27;20043;-51
2021/11/21 06:37:47;;;;;;;12.55;4.78;;;;;;;22.67;52.73;99017.06;5128942;27;20496;-54
2021/11/21 06:40:14;;;;;;;10.63;4.93;;;;;;;22.67;52.41;99013.56;5133253;27;20035;-54
2021/11/21 06:42:42;;;;;;;10.80;4.43;;;;;;;22.66;52.61;99011.81;5122486;27;20044;-56
2021/11/21 06:45:09;;;;;;;12.38;4.80;;;;;;;22.65;52.33;99016.28;5116015;27;20048;-56
2021/11/21 06:47:37;;;;;;;9.30;4.50;;;;;;;22.65;52.69;99010.13;5123065;27;20043;-54
2021/11/21 06:50:05;;;;;;;9.20;4.78;;;;;;;22.64;52.45;98998.63;5127012;27;20047;-56
2021/11/21 06:52:33;;;;;;;14.73;5.00;;;;;;;22.64;52.49;99003.09;5130358;27;20044;-56
2021/11/21 06:55:00;;;;;;;10.75;5.07;;;;;;;22.64;52.27;98997.78;5132684;27;20100;-56
2021/11/21 06:57:27;;;;;;;12.70;5.07;;;;;;;22.68;51.84;98999.31;5130670;27;20059;-54
